createdAt,value
2023-03-11T00:02:14.327Z,81.66
2023-03-11T00:06:38.314Z,81.78
2023-03-11T00:11:04.343Z,81.32
2023-03-11T00:15:29.429Z,81.37
2023-03-11T00:19:56.176Z,81.48
2023-03-11T00:24:20.135Z,81.78
2023-03-11T00:28:47.378Z,81.63
2023-03-11T00:33:12.727Z,81.60
2023-03-11T00:37:36.255Z,81.50
2023-03-11T00:42:00.855Z,81.45
2023-03-11T00:46:25.214Z,81.70
2023-03-11T00:50:49.467Z,81.49
2023-03-11T00:55:12.095Z,81.69
2023-03-11T00:59:37.812Z,82.10
2023-03-11T01:04:05.715Z,82.10
2023-03-11T01:08:29.697Z,82.38
2023-03-11T01:12:47.438Z,82.30
2023-03-11T01:17:13.327Z,82.44
2023-03-11T01:21:38.210Z,82.59
2023-03-11T01:26:02.461Z,82.65
2023-03-11T01:30:33.238Z,82.63
2023-03-11T01:35:03.023Z,82.22
2023-03-11T01:39:28.970Z,82.07
2023-03-11T01:43:51.154Z,81.88
2023-03-11T01:48:15.144Z,81.64
2023-03-11T01:52:39.154Z,81.52
2023-03-11T01:57:04.232Z,81.53
2023-03-11T02:01:28.146Z,81.19
2023-03-11T02:05:54.085Z,80.69
2023-03-11T02:10:17.999Z,80.20
2023-03-11T02:14:41.858Z,79.86
2023-03-11T02:19:08.744Z,79.63
2023-03-11T02:23:33.643Z,79.48
2023-03-11T02:27:51.141Z,79.32
2023-03-11T02:32:20.144Z,79.13
2023-03-11T02:36:44.227Z,79.14
2023-03-11T02:41:28.501Z,78.91
2023-03-11T02:46:14.431Z,79.09
2023-03-11T02:50:38.202Z,79.13
2023-03-11T02:55:02.832Z,78.84
2023-03-11T02:59:27.829Z,78.90
2023-03-11T03:03:53.754Z,77.90
2023-03-11T03:08:24.520Z,77.73
2023-03-11T03:12:48.444Z,77.85
2023-03-11T03:17:12.588Z,77.93
2023-03-11T03:21:36.618Z,77.63
2023-03-11T03:26:00.563Z,77.47
2023-03-11T03:30:26.247Z,77.91
2023-03-11T03:34:50.079Z,77.56
2023-03-11T03:39:13.632Z,77.54
2023-03-11T03:43:37.612Z,77.48
2023-03-11T03:48:01.587Z,77.78
2023-03-11T03:52:25.553Z,77.98
2023-03-11T03:56:49.481Z,77.89
2023-03-11T04:01:13.473Z,77.74
2023-03-11T04:05:37.390Z,77.60
2023-03-11T04:10:02.373Z,77.46
2023-03-11T04:14:26.184Z,76.53
2023-03-11T04:18:50.074Z,75.38
2023-03-11T04:23:15.039Z,72.23
2023-03-11T04:27:28.851Z,73.36
2023-03-11T04:31:52.739Z,73.38
2023-03-11T04:36:18.678Z,72.77
2023-03-11T04:40:42.563Z,71.91
2023-03-11T04:45:06.583Z,71.53
2023-03-11T04:49:32.824Z,70.07
2023-03-11T04:53:55.723Z,69.96
2023-03-11T04:58:19.971Z,68.68
2023-03-11T05:02:46.855Z,69.61
2023-03-11T05:07:13.804Z,68.72
2023-03-11T05:11:38.702Z,68.50
2023-03-11T05:16:02.544Z,68.65
2023-03-11T05:20:27.392Z,68.28
2023-03-11T05:24:51.311Z,67.34
2023-03-11T05:29:15.283Z,67.02
2023-03-11T05:33:39.305Z,66.14
2023-03-11T05:38:04.516Z,66.40
2023-03-11T05:42:30.436Z,65.92
2023-03-11T05:46:53.295Z,65.03
2023-03-11T05:51:16.461Z,65.11
2023-03-11T05:55:40.327Z,64.29
2023-03-11T06:00:04.362Z,64.22
2023-03-11T06:04:28.454Z,64.51
2023-03-11T06:08:52.689Z,64.57
2023-03-11T06:13:16.728Z,64.59
2023-03-11T06:17:40.864Z,64.81
2023-03-11T06:22:04.862Z,63.82
2023-03-11T06:26:37.648Z,63.61
2023-03-11T06:31:01.630Z,63.70
2023-03-11T06:35:25.559Z,63.62
2023-03-11T06:39:49.524Z,63.92
2023-03-11T06:44:13.670Z,64.26
2023-03-11T06:48:30.231Z,64.15
2023-03-11T06:52:54.164Z,63.93
2023-03-11T06:57:18.043Z,64.21
2023-03-11T07:01:52.409Z,63.70
2023-03-11T07:06:16.376Z,63.79
2023-03-11T07:10:40.221Z,63.24
2023-03-11T07:14:54.187Z,63.49
2023-03-11T07:19:18.130Z,63.08
2023-03-11T07:23:42.038Z,62.33
2023-03-11T07:28:05.907Z,62.55
2023-03-11T07:32:29.896Z,62.62
2023-03-11T07:36:44.136Z,62.68
2023-03-11T07:41:08.264Z,61.91
2023-03-11T07:45:32.280Z,61.89
2023-03-11T07:49:57.317Z,61.10
2023-03-11T07:54:21.456Z,61.08
2023-03-11T07:58:46.050Z,60.68
2023-03-11T08:03:10.166Z,61.14
2023-03-11T08:07:34.914Z,60.56
2023-03-11T08:11:58.867Z,60.71
2023-03-11T08:16:22.753Z,59.90
2023-03-11T08:20:46.992Z,59.86
2023-03-11T08:25:10.926Z,58.43
2023-03-11T08:29:50.859Z,59.16
2023-03-11T08:34:14.832Z,57.83
2023-03-11T08:38:39.230Z,57.91
2023-03-11T08:43:04.240Z,57.28
2023-03-11T08:47:30.995Z,56.77
2023-03-11T08:51:55.150Z,57.36
2023-03-11T08:56:18.617Z,56.89
2023-03-11T09:00:42.194Z,57.09
2023-03-11T09:05:07.251Z,56.69
2023-03-11T09:09:34.190Z,57.24
2023-03-11T09:13:58.055Z,56.93
2023-03-11T09:18:21.983Z,57.31
2023-03-11T09:22:46.885Z,58.09
2023-03-11T09:27:10.765Z,58.07
2023-03-11T09:31:34.863Z,58.48
2023-03-11T09:35:58.992Z,58.83
2023-03-11T09:40:22.935Z,59.64
2023-03-11T09:45:01.863Z,59.75
2023-03-11T09:49:49.229Z,59.49
2023-03-11T09:54:21.767Z,59.21
2023-03-11T09:58:45.681Z,59.57
2023-03-11T10:03:09.609Z,60.37
2023-03-11T10:07:35.679Z,59.10
2023-03-11T10:12:16.653Z,58.69
2023-03-11T10:16:53.499Z,57.71
2023-03-11T10:22:05.532Z,57.59
2023-03-11T10:26:37.201Z,57.83
2023-03-11T10:31:09.329Z,57.89
2023-03-11T10:35:39.163Z,58.38
2023-03-11T10:40:15.322Z,57.71
2023-03-11T10:44:42.237Z,57.73
2023-03-11T10:49:06.336Z,57.45
2023-03-11T10:53:45.060Z,57.04
2023-03-11T11:03:30.950Z,56.22
2023-03-11T11:08:09.808Z,55.85
2023-03-11T11:12:45.820Z,55.62
2023-03-11T11:17:25.359Z,55.34
2023-03-11T11:27:04.775Z,54.13
2023-03-11T11:32:10.003Z,53.92
2023-03-11T11:36:42.466Z,54.32
2023-03-11T11:41:09.730Z,54.12
2023-03-11T11:45:34.737Z,54.09
2023-03-11T11:50:10.121Z,54.20
2023-03-11T11:55:00.383Z,54.14
2023-03-11T11:59:29.122Z,54.15
2023-03-11T12:04:11.144Z,54.34
2023-03-11T12:08:48.976Z,54.63
2023-03-11T12:13:29.125Z,54.90
2023-03-11T12:17:59.041Z,55.46
2023-03-11T12:22:40.086Z,55.38
2023-03-11T12:27:04.974Z,55.79
2023-03-11T12:31:40.153Z,55.22
2023-03-11T12:36:11.035Z,55.98
2023-03-11T12:40:41.683Z,56.37
2023-03-11T12:45:12.795Z,56.63
2023-03-11T12:49:48.441Z,56.15
2023-03-11T12:54:27.477Z,56.51
2023-03-11T12:58:51.446Z,57.05
2023-03-11T13:03:17.124Z,57.05
2023-03-11T13:07:53.468Z,57.52
2023-03-11T13:12:29.773Z,58.16
2023-03-11T13:16:53.688Z,57.43
2023-03-11T13:21:29.165Z,57.68
2023-03-11T13:26:05.996Z,57.73
2023-03-11T13:30:15.376Z,56.95
2023-03-11T13:35:23.442Z,56.91
2023-03-11T13:39:54.265Z,56.30
2023-03-11T13:44:05.349Z,55.76
2023-03-11T13:48:34.309Z,55.48
2023-03-11T13:53:09.591Z,55.43
2023-03-11T13:57:42.406Z,54.79
2023-03-11T14:02:15.004Z,54.88
2023-03-11T14:06:44.729Z,53.68
2023-03-11T14:11:18.734Z,54.02
2023-03-11T14:15:48.743Z,52.32
2023-03-11T14:20:15.734Z,53.19
2023-03-11T14:24:46.517Z,52.24
2023-03-11T14:29:10.622Z,52.40
2023-03-11T14:33:58.268Z,51.92
2023-03-11T14:38:22.096Z,51.73
2023-03-11T14:43:04.016Z,49.43
2023-03-11T14:47:27.886Z,49.44
2023-03-11T14:51:51.818Z,49.48
2023-03-11T14:56:09.615Z,47.09
2023-03-11T15:00:42.940Z,48.71
2023-03-11T15:05:10.575Z,48.89
2023-03-11T15:09:53.543Z,48.08
2023-03-11T15:14:17.531Z,47.20
2023-03-11T15:18:41.279Z,46.59
2023-03-11T15:23:07.222Z,47.25
2023-03-11T15:27:37.727Z,45.39
2023-03-11T15:32:01.678Z,46.74
2023-03-11T15:36:31.210Z,47.75
2023-03-11T15:41:06.990Z,48.43
2023-03-11T15:45:39.580Z,49.02
2023-03-11T15:49:50.616Z,49.28
2023-03-11T15:53:55.206Z,49.53
2023-03-11T15:58:21.971Z,49.89
2023-03-11T16:03:00.545Z,50.10
2023-03-11T16:07:38.828Z,50.25
2023-03-11T16:12:06.247Z,50.08
2023-03-11T16:16:31.108Z,50.58
2023-03-11T16:21:02.816Z,50.06
2023-03-11T16:25:27.546Z,50.96
2023-03-11T16:29:44.124Z,51.18
2023-03-11T16:34:08.577Z,52.08
2023-03-11T16:38:33.987Z,51.98
2023-03-11T16:42:58.363Z,51.88
2023-03-11T16:47:22.331Z,52.47
2023-03-11T16:51:47.277Z,52.06
2023-03-11T16:56:03.471Z,52.48
2023-03-11T17:00:28.652Z,52.84
2023-03-11T17:04:53.123Z,53.10
2023-03-11T17:09:17.184Z,53.19
2023-03-11T17:13:41.048Z,53.57
2023-03-11T17:18:07.903Z,53.60
2023-03-11T17:22:31.825Z,54.23
2023-03-11T17:26:55.760Z,54.41
2023-03-11T17:31:19.788Z,54.95
2023-03-11T17:35:43.918Z,55.01
2023-03-11T17:40:06.676Z,54.90
2023-03-11T17:44:44.603Z,54.58
2023-03-11T17:49:12.321Z,54.88
2023-03-11T17:53:36.311Z,54.85
2023-03-11T17:58:40.137Z,55.15
2023-03-11T18:03:04.078Z,55.39
2023-03-11T18:07:26.769Z,55.48
2023-03-11T18:11:50.697Z,55.11
2023-03-11T18:16:14.835Z,54.98
2023-03-11T18:20:41.454Z,54.98
2023-03-11T18:24:45.102Z,55.21
2023-03-11T18:29:09.011Z,55.14
2023-03-11T18:33:32.984Z,55.18
2023-03-11T18:37:56.903Z,55.16
2023-03-11T18:42:20.807Z,55.33
2023-03-11T18:46:44.308Z,55.32
2023-03-11T18:51:08.509Z,55.39
2023-03-11T18:55:25.208Z,55.62
2023-03-11T18:59:49.348Z,55.81
2023-03-11T19:04:13.906Z,56.23
2023-03-11T19:08:37.936Z,56.07
2023-03-11T19:12:52.300Z,56.57
2023-03-11T19:17:16.375Z,56.60
2023-03-11T19:21:40.384Z,56.73
2023-03-11T19:26:06.385Z,57.12
2023-03-11T19:30:30.790Z,57.31
2023-03-11T19:34:54.879Z,57.06
2023-03-11T19:39:18.880Z,57.25
2023-03-11T19:43:42.956Z,57.19
2023-03-11T19:48:07.067Z,57.41
2023-03-11T19:52:31.062Z,57.23
2023-03-11T19:56:55.188Z,56.93
2023-03-11T20:01:22.206Z,57.60
2023-03-11T20:05:46.456Z,57.18
2023-03-11T20:10:12.595Z,56.95
2023-03-11T20:14:36.781Z,57.24
2023-03-11T20:19:00.823Z,57.37
2023-03-11T20:23:24.515Z,57.11
2023-03-11T20:27:48.647Z,57.21
2023-03-11T20:32:15.453Z,57.39
2023-03-11T20:36:47.541Z,57.32
2023-03-11T20:41:12.885Z,57.56
2023-03-11T20:45:36.874Z,57.36
2023-03-11T20:50:00.964Z,57.11
2023-03-11T20:54:24.681Z,56.92
2023-03-11T20:58:48.370Z,56.74
2023-03-11T21:03:12.666Z,56.03
2023-03-11T21:07:36.758Z,56.25
2023-03-11T21:12:00.997Z,56.37
2023-03-11T21:16:25.050Z,56.49
2023-03-11T21:20:49.933Z,56.75
2023-03-11T21:25:13.246Z,57.06
2023-03-11T21:29:37.195Z,56.72
2023-03-11T21:34:01.247Z,57.11
2023-03-11T21:38:25.496Z,56.73
2023-03-11T21:42:49.611Z,56.78
2023-03-11T21:47:13.688Z,57.01
2023-03-11T21:51:57.728Z,57.16
2023-03-11T21:56:42.786Z,57.01
2023-03-11T22:01:07.229Z,57.54
2023-03-11T22:05:24.456Z,57.11
2023-03-11T22:09:48.647Z,57.42
2023-03-11T22:14:13.093Z,57.29
2023-03-11T22:18:38.174Z,57.60
2023-03-11T22:23:01.113Z,57.94
2023-03-11T22:27:25.025Z,58.15
2023-03-11T22:31:53.542Z,58.28
2023-03-11T22:36:37.458Z,58.45
2023-03-11T22:41:21.496Z,58.82
2023-03-11T22:45:45.620Z,58.81
2023-03-11T22:50:09.549Z,59.15
2023-03-11T22:54:33.732Z,59.01
2023-03-11T22:59:17.584Z,58.91
2023-03-11T23:03:41.548Z,58.95
2023-03-11T23:08:06.024Z,58.73
2023-03-11T23:12:29.965Z,58.91
2023-03-11T23:16:59.616Z,58.88
2023-03-11T23:21:23.553Z,58.75
2023-03-11T23:25:47.555Z,58.66
2023-03-11T23:30:11.552Z,58.58
2023-03-11T23:34:36.480Z,58.42
2023-03-11T23:39:00.363Z,58.34
2023-03-11T23:43:25.651Z,58.01
2023-03-11T23:47:49.596Z,57.79
2023-03-11T23:52:13.890Z,57.44
2023-03-11T23:56:38.802Z,57.57
